Time;durP1;ratioP1;P1;durP2;ratioP2;P2;SDS_P1;SDS_P2;PMS_P1;PMS_P2;Temp;Humidity;BMP_temperature;BMP_pressure;BME280_temperature;BME280_humidity;BME280_pressure;Samples;Min_cycle;Max_cycle;Signal;HPM_P1;HPM_P2
2023/07/23 00:00:34;;;;;;;6.90;4.53;;;18.10;2.90;;;;;;5033594;28;20379;-73
2023/07/23 00:03:01;;;;;;;8.90;4.50;;;18.10;1.00;;;;;;5034722;28;20349;-73
2023/07/23 00:05:27;;;;;;;7.82;4.30;;;18.00;1.00;;;;;;5036707;28;20040;-74
2023/07/23 00:07:56;;;;;;;6.18;4.22;;;18.00;1.00;;;;;;5052105;28;20037;-74
2023/07/23 00:10:22;;;;;;;6.45;4.20;;;17.90;1.00;;;;;;5036750;28;20025;-74
2023/07/23 00:12:48;;;;;;;9.05;4.05;;;17.90;1.00;;;;;;5036822;28;20044;-74
2023/07/23 00:15:15;;;;;;;7.80;4.07;;;17.90;15.80;;;;;;5057595;28;20056;-74
2023/07/23 00:17:41;;;;;;;7.72;4.90;;;17.90;30.60;;;;;;5038881;28;20034;-72
2023/07/23 00:20:09;;;;;;;7.10;3.97;;;17.80;58.00;;;;;;5048757;28;20032;-72
2023/07/23 00:22:36;;;;;;;7.65;4.72;;;17.80;61.90;;;;;;5055565;28;20036;-74
2023/07/23 00:25:03;;;;;;;8.60;4.65;;;17.70;82.20;;;;;;5034297;28;20044;-74
2023/07/23 00:27:29;;;;;;;7.90;4.53;;;17.70;92.50;;;;;;5027745;28;20360;-74
2023/07/23 00:29:56;;;;;;;6.47;4.95;;;17.60;79.10;;;;;;5031952;28;20046;-73
2023/07/23 00:32:22;;;;;;;6.85;4.57;;;17.40;93.20;;;;;;5042536;28;20040;-73
2023/07/23 00:34:48;;;;;;;6.45;4.88;;;17.30;99.90;;;;;;5035675;28;20029;-75
2023/07/23 00:37:15;;;;;;;6.47;4.40;;;17.30;99.90;;;;;;5056936;28;20072;-74
2023/07/23 00:39:42;;;;;;;7.22;4.63;;;17.30;99.90;;;;;;5041324;28;20105;-73
2023/07/23 00:42:08;;;;;;;7.75;5.03;;;17.10;99.90;;;;;;5038649;28;20042;-74
2023/07/23 00:44:34;;;;;;;7.07;4.65;;;17.00;99.90;;;;;;5035576;28;20037;-74
2023/07/23 00:47:03;;;;;;;7.22;4.45;;;16.80;99.90;;;;;;5038011;28;20049;-74
2023/07/23 00:49:29;;;;;;;8.27;4.70;;;16.70;99.90;;;;;;5053286;28;20493;-74
2023/07/23 00:51:56;;;;;;;5.90;4.40;;;16.60;99.90;;;;;;5050482;28;20046;-73
2023/07/23 00:54:23;;;;;;;6.05;4.40;;;16.60;99.90;;;;;;5039088;28;20037;-74
2023/07/23 00:56:50;;;;;;;7.55;3.70;;;16.60;99.90;;;;;;5036428;28;20045;-74
2023/07/23 00:59:18;;;;;;;5.82;4.07;;;16.60;99.90;;;;;;5043694;28;20049;-73
2023/07/23 01:01:44;;;;;;;9.65;4.43;;;16.80;99.90;;;;;;5050177;28;20041;-74
2023/07/23 01:04:10;;;;;;;4.85;3.60;;;16.80;99.90;;;;;;5036910;28;20489;-74
2023/07/23 01:06:38;;;;;;;5.55;4.15;;;16.80;99.90;;;;;;5057495;28;20037;-73
2023/07/23 01:09:05;;;;;;;7.30;3.80;;;16.80;99.90;;;;;;5036333;28;20044;-74
2023/07/23 01:11:33;;;;;;;6.20;3.35;;;16.70;99.90;;;;;;5036008;28;20450;-74
2023/07/23 01:14:02;;;;;;;5.93;3.78;;;16.70;99.90;;;;;;5037395;28;20034;-72
2023/07/23 01:16:29;;;;;;;7.35;4.93;;;16.70;99.90;;;;;;5038663;28;20375;-75
2023/07/23 01:18:56;;;;;;;7.35;3.80;;;16.70;99.90;;;;;;5040832;28;20196;-73
2023/07/23 01:21:22;;;;;;;6.90;4.25;;;16.60;99.90;;;;;;5038534;28;20473;-74
2023/07/23 01:23:49;;;;;;;6.68;4.75;;;16.60;99.90;;;;;;5043585;28;20045;-78
2023/07/23 01:26:19;;;;;;;7.10;4.32;;;16.60;99.90;;;;;;5035978;28;20390;-74
2023/07/23 01:28:45;;;;;;;13.25;5.70;;;16.50;99.90;;;;;;5034107;28;20060;-74
2023/07/23 01:31:12;;;;;;;7.07;4.25;;;16.60;99.90;;;;;;5051431;28;20046;-73
2023/07/23 01:33:40;;;;;;;6.57;4.25;;;16.50;99.90;;;;;;5037110;28;20053;-73
2023/07/23 01:36:07;;;;;;;7.95;4.35;;;16.50;99.90;;;;;;5036706;28;20045;-73
2023/07/23 01:38:33;;;;;;;5.93;4.43;;;16.50;99.90;;;;;;5040088;28;20046;-74
2023/07/23 01:41:01;;;;;;;6.47;4.30;;;16.50;99.90;;;;;;5037623;28;20042;-74
2023/07/23 01:43:28;;;;;;;7.28;3.92;;;16.50;99.90;;;;;;5036195;28;20052;-73
2023/07/23 01:45:54;;;;;;;7.07;3.88;;;16.50;99.90;;;;;;5034047;28;20382;-73
2023/07/23 01:48:22;;;;;;;9.40;4.60;;;16.50;99.90;;;;;;5039066;28;20033;-73
2023/07/23 01:50:49;;;;;;;6.97;3.38;;;16.40;99.90;;;;;;5038218;28;20489;-73
2023/07/23 01:53:15;;;;;;;8.80;4.03;;;16.40;99.90;;;;;;5051697;28;20474;-73
2023/07/23 01:55:42;;;;;;;6.13;4.22;;;16.30;99.90;;;;;;5036464;28;20056;-73
2023/07/23 01:58:08;;;;;;;7.45;5.05;;;16.30;99.90;;;;;;5052807;28;20041;-73
2023/07/23 02:00:34;;;;;;;5.72;3.65;;;16.30;99.90;;;;;;5038145;28;20037;-73
2023/07/23 02:03:00;;;;;;;5.53;4.43;;;16.30;99.90;;;;;;5057758;28;20435;-74
2023/07/23 02:05:27;;;;;;;7.45;3.92;;;16.30;99.90;;;;;;5040300;28;20053;-72
2023/07/23 02:07:53;;;;;;;8.40;4.57;;;16.30;99.90;;;;;;5036932;28;20029;-73
2023/07/23 02:10:20;;;;;;;7.57;4.47;;;16.30;99.90;;;;;;5031060;28;20041;-74
2023/07/23 02:12:46;;;;;;;8.82;4.55;;;16.30;99.90;;;;;;5036487;28;20033;-73
2023/07/23 02:15:13;;;;;;;5.50;4.45;;;16.40;99.90;;;;;;5033331;28;20406;-74
2023/07/23 02:17:39;;;;;;;7.53;4.60;;;16.30;99.90;;;;;;5049972;28;20067;-74
2023/07/23 02:20:06;;;;;;;10.35;4.53;;;16.30;99.90;;;;;;5035386;28;20037;-73
2023/07/23 02:22:33;;;;;;;6.75;4.65;;;16.30;99.90;;;;;;5038498;28;20451;-74
2023/07/23 02:24:59;;;;;;;6.07;4.40;;;16.30;99.90;;;;;;5038663;28;20033;-73
2023/07/23 02:27:25;;;;;;;7.57;4.13;;;16.30;99.90;;;;;;5037034;28;20029;-73
2023/07/23 02:29:51;;;;;;;10.13;4.90;;;16.30;99.90;;;;;;5033846;28;20477;-73
2023/07/23 02:32:18;;;;;;;6.22;4.35;;;16.30;99.90;;;;;;5052343;28;20044;-73
2023/07/23 02:34:44;;;;;;;6.82;4.10;;;16.30;99.90;;;;;;5036547;28;20151;-73
2023/07/23 02:37:10;;;;;;;6.65;4.25;;;16.30;99.90;;;;;;5032156;28;20490;-73
2023/07/23 02:39:36;;;;;;;5.78;4.18;;;16.20;99.90;;;;;;5036553;28;20029;-72
2023/07/23 02:42:03;;;;;;;6.20;4.20;;;16.10;99.90;;;;;;5049098;28;20427;-74
2023/07/23 02:44:29;;;;;;;5.22;3.92;;;16.10;99.90;;;;;;5035819;28;20053;-74
2023/07/23 02:46:55;;;;;;;5.50;4.32;;;16.00;99.90;;;;;;5037468;28;20037;-74
2023/07/23 02:49:21;;;;;;;6.80;5.00;;;16.00;99.90;;;;;;5040433;28;20057;-74
2023/07/23 02:51:47;;;;;;;7.90;4.30;;;16.00;99.90;;;;;;5035614;28;20030;-74
2023/07/23 02:54:13;;;;;;;6.30;4.28;;;16.00;99.90;;;;;;5034538;28;20356;-73
2023/07/23 02:56:39;;;;;;;5.70;4.20;;;16.00;99.90;;;;;;5037113;28;20036;-73
2023/07/23 02:59:06;;;;;;;8.57;4.38;;;16.10;99.90;;;;;;5037398;28;20033;-73
2023/07/23 03:01:32;;;;;;;4.43;3.65;;;16.00;99.90;;;;;;5051185;28;20055;-73
2023/07/23 03:03:58;;;;;;;7.55;3.95;;;16.10;99.90;;;;;;5036888;28;20029;-74
2023/07/23 03:06:25;;;;;;;6.82;3.80;;;16.10;99.90;;;;;;5037485;28;20037;-74
2023/07/23 03:08:51;;;;;;;7.28;3.97;;;15.90;99.90;;;;;;5038859;28;20048;-74
2023/07/23 03:11:17;;;;;;;5.82;4.38;;;15.90;99.90;;;;;;5053519;28;20052;-74
2023/07/23 03:13:44;;;;;;;6.15;4.57;;;15.80;99.90;;;;;;5035422;28;20037;-75
2023/07/23 03:16:10;;;;;;;5.03;4.10;;;15.70;99.90;;;;;;5039100;28;20390;-73
2023/07/23 03:18:36;;;;;;;6.43;3.97;;;15.80;99.90;;;;;;5046772;28;20064;-74
2023/07/23 03:21:02;;;;;;;5.75;4.03;;;15.80;99.90;;;;;;5051769;28;20037;-73
2023/07/23 03:23:28;;;;;;;7.93;4.85;;;15.80;99.90;;;;;;5038605;28;20470;-75
2023/07/23 03:25:54;;;;;;;8.38;4.05;;;15.80;99.90;;;;;;5037672;28;20042;-75
2023/07/23 03:28:21;;;;;;;6.30;4.53;;;15.80;99.90;;;;;;5035742;28;20025;-73
2023/07/23 03:30:48;;;;;;;5.85;3.92;;;15.70;99.90;;;;;;5040148;28;20045;-74
2023/07/23 03:33:14;;;;;;;7.07;4.57;;;15.70;99.90;;;;;;5031914;28;20044;-73
2023/07/23 03:35:40;;;;;;;7.28;4.80;;;15.70;99.90;;;;;;5032818;28;20044;-73
2023/07/23 03:38:06;;;;;;;6.45;4.82;;;15.80;99.90;;;;;;5034842;28;20056;-74
2023/07/23 03:40:34;;;;;;;8.70;5.55;;;15.80;99.90;;;;;;5033302;28;20049;-74
2023/07/23 03:43:00;;;;;;;8.45;5.05;;;15.90;99.90;;;;;;5052027;28;20033;-75
2023/07/23 03:45:27;;;;;;;7.80;4.93;;;15.80;99.90;;;;;;5036136;28;20033;-74
2023/07/23 03:47:53;;;;;;;6.15;3.90;;;15.80;99.90;;;;;;5052345;28;20042;-73
2023/07/23 03:50:19;;;;;;;7.82;5.32;;;15.80;99.90;;;;;;5038099;28;20037;-75
2023/07/23 03:52:45;;;;;;;6.50;4.30;;;15.80;99.90;;;;;;5056237;28;20030;-73
2023/07/23 03:55:11;;;;;;;8.02;4.72;;;15.80;99.90;;;;;;5038607;28;20053;-74
2023/07/23 03:57:37;;;;;;;5.95;4.43;;;15.80;99.90;;;;;;5041756;28;20041;-74
2023/07/23 04:00:05;;;;;;;7.03;4.38;;;15.70;99.90;;;;;;5038905;28;20046;-75
2023/07/23 04:02:37;;;;;;;5.90;4.85;;;15.90;99.90;;;;;;5044284;28;20049;-75
2023/07/23 04:05:04;;;;;;;7.63;4.70;;;15.80;99.90;;;;;;5050891;28;20144;-74
2023/07/23 04:07:30;;;;;;;8.10;5.10;;;15.90;99.90;;;;;;5035744;28;20044;-73
2023/07/23 04:09:56;;;;;;;8.23;4.90;;;15.90;99.90;;;;;;5040037;28;20051;-74
2023/07/23 04:12:23;;;;;;;5.63;4.32;;;15.90;99.90;;;;;;5040710;28;20045;-73
2023/07/23 04:14:52;;;;;;;7.63;4.47;;;16.00;99.90;;;;;;5056137;28;20405;-74
2023/07/23 04:17:18;;;;;;;7.65;3.88;;;16.10;99.90;;;;;;5055483;28;20982;-74
2023/07/23 04:19:44;;;;;;;6.97;4.22;;;16.10;99.90;;;;;;5035873;28;20044;-75
2023/07/23 04:22:10;;;;;;;6.60;4.07;;;16.30;99.90;;;;;;5035131;28;20045;-74
2023/07/23 04:24:36;;;;;;;6.38;4.22;;;16.30;99.90;;;;;;5040700;28;20048;-75
2023/07/23 04:27:03;;;;;;;6.57;3.97;;;16.60;99.90;;;;;;5034638;28;20044;-74
2023/07/23 04:29:29;;;;;;;7.57;4.38;;;16.60;99.90;;;;;;5038192;28;20040;-74
2023/07/23 04:31:55;;;;;;;7.38;4.57;;;16.70;99.90;;;;;;5038717;28;20025;-74
2023/07/23 04:34:21;;;;;;;5.40;3.97;;;16.80;99.90;;;;;;5038142;28;20041;-74
2023/07/23 04:36:51;;;;;;;5.43;3.90;;;16.90;99.90;;;;;;5038503;28;20042;-74
2023/07/23 04:39:19;;;;;;;6.22;3.90;;;17.00;99.90;;;;;;5037790;28;20064;-74
2023/07/23 04:41:46;;;;;;;6.93;3.78;;;17.30;99.90;;;;;;5039126;28;20055;-74
2023/07/23 04:44:12;;;;;;;5.20;3.70;;;17.60;99.90;;;;;;5033976;28;20037;-74
2023/07/23 04:46:38;;;;;;;5.00;3.42;;;17.90;99.90;;;;;;5038456;28;20041;-74
2023/07/23 04:49:04;;;;;;;5.22;3.08;;;18.40;99.90;;;;;;5041517;28;20040;-75
2023/07/23 04:51:31;;;;;;;5.22;3.70;;;19.00;99.90;;;;;;5036776;28;20043;-74
2023/07/23 04:53:57;;;;;;;5.50;3.55;;;19.50;99.90;;;;;;5039057;28;20037;-74
2023/07/23 04:56:23;;;;;;;4.15;3.13;;;19.80;44.30;;;;;;5040160;28;20483;-75
2023/07/23 04:58:49;;;;;;;3.67;3.00;;;20.00;34.20;;;;;;5040814;28;20037;-75
2023/07/23 05:01:15;;;;;;;5.35;3.38;;;20.40;1.90;;;;;;5034335;28;20038;-75
2023/07/23 05:03:41;;;;;;;4.22;3.28;;;20.50;1.00;;;;;;5036451;28;20040;-75
2023/07/23 05:06:07;;;;;;;5.13;3.53;;;20.70;1.00;;;;;;5037443;28;20037;-73
2023/07/23 05:08:34;;;;;;;4.25;3.50;;;21.20;1.00;;;;;;5040015;28;20052;-74
2023/07/23 05:11:03;;;;;;;5.25;3.33;;;21.50;1.00;;;;;;5035897;28;20034;-74
2023/07/23 05:13:30;;;;;;;3.75;3.15;;;21.70;1.00;;;;;;5037677;28;20037;-74
2023/07/23 05:16:04;;;;;;;4.43;3.25;;;21.50;1.00;;;;;;5042010;28;20033;-74
2023/07/23 05:18:31;;;;;;;5.13;3.13;;;21.40;1.00;;;;;;5040495;28;20041;-73
2023/07/23 05:20:57;;;;;;;4.45;3.20;;;21.10;1.00;;;;;;5040210;28;20033;-74
2023/07/23 05:23:23;;;;;;;5.43;3.20;;;20.90;1.00;;;;;;5038081;28;20033;-76
2023/07/23 05:25:50;;;;;;;4.55;3.25;;;20.70;1.00;;;;;;5040382;28;20029;-74
2023/07/23 05:28:16;;;;;;;5.07;3.08;;;20.30;1.00;;;;;;5034739;28;20037;-73
2023/07/23 05:30:42;;;;;;;6.43;3.30;;;20.00;1.00;;;;;;5037772;28;20044;-75
2023/07/23 05:33:09;;;;;;;3.88;3.28;;;19.80;5.00;;;;;;5040248;28;20028;-74
2023/07/23 05:35:35;;;;;;;4.68;3.47;;;19.60;20.30;;;;;;5033824;28;20041;-75
2023/07/23 05:38:02;;;;;;;5.50;3.40;;;19.50;1.00;;;;;;5039286;28;20033;-75
2023/07/23 05:40:31;;;;;;;4.78;2.88;;;19.60;1.00;;;;;;5038526;28;20030;-74
2023/07/23 05:42:59;;;;;;;4.20;3.00;;;19.60;1.00;;;;;;5042759;28;20378;-76
2023/07/23 05:45:25;;;;;;;5.00;2.85;;;19.50;1.00;;;;;;5037085;28;20029;-74
2023/07/23 05:47:51;;;;;;;4.28;3.35;;;19.50;1.00;;;;;;5038201;28;20392;-73
2023/07/23 05:50:17;;;;;;;5.35;3.38;;;19.50;1.00;;;;;;5038961;28;20025;-74
2023/07/23 05:52:43;;;;;;;4.32;3.08;;;19.60;1.00;;;;;;5035193;28;20041;-73
2023/07/23 05:55:09;;;;;;;5.28;3.00;;;19.70;1.00;;;;;;5032677;28;20029;-73
2023/07/23 05:57:36;;;;;;;5.65;3.03;;;19.80;1.00;;;;;;5034145;28;20035;-72
2023/07/23 06:00:03;;;;;;;6.20;3.63;;;20.20;1.00;;;;;;5037983;28;20443;-73
2023/07/23 06:02:37;;;;;;;5.03;3.03;;;20.20;1.00;;;;;;5040305;28;20037;-73
2023/07/23 06:05:03;;;;;;;4.63;3.35;;;20.20;1.00;;;;;;5020704;28;20033;-73
2023/07/23 06:07:31;;;;;;;4.32;2.70;;;20.70;1.00;;;;;;5050282;28;20140;-74
2023/07/23 06:09:57;;;;;;;4.50;2.85;;;20.90;1.00;;;;;;5043860;28;20033;-73
2023/07/23 06:12:23;;;;;;;4.97;3.53;;;20.90;1.00;;;;;;5023715;28;20046;-73
2023/07/23 06:14:49;;;;;;;4.43;2.65;;;21.20;1.00;;;;;;5032202;28;20435;-74
2023/07/23 06:17:15;;;;;;;4.95;3.08;;;21.80;1.00;;;;;;5033611;28;20052;-73
2023/07/23 06:19:42;;;;;;;5.68;2.80;;;22.50;99.90;;;;;;5030049;28;20041;-73
2023/07/23 06:22:08;;;;;;;5.40;2.70;;;22.90;99.90;;;;;;5037142;28;20034;-74
2023/07/23 06:24:34;;;;;;;3.95;2.65;;;22.90;99.90;;;;;;5036867;28;20041;-73
2023/07/23 06:27:00;;;;;;;5.38;2.75;;;22.60;99.90;;;;;;5032321;28;20033;-73
2023/07/23 06:29:26;;;;;;;3.63;2.53;;;22.70;99.90;;;;;;5035131;28;20217;-74
2023/07/23 06:31:52;;;;;;;6.75;2.65;;;23.00;99.90;;;;;;5029323;28;20033;-74
2023/07/23 06:34:19;;;;;;;3.78;2.17;;;23.00;99.90;;;;;;5046450;28;20394;-73
2023/07/23 06:36:46;;;;;;;3.00;2.10;;;23.20;99.90;;;;;;5034936;28;20033;-74
2023/07/23 06:39:13;;;;;;;4.20;2.22;;;23.70;99.90;;;;;;5033141;28;20033;-74
2023/07/23 06:41:40;;;;;;;2.85;1.92;;;23.70;99.90;;;;;;5040138;28;20036;-74
2023/07/23 06:44:07;;;;;;;3.35;2.13;;;23.70;99.90;;;;;;5050053;28;20052;-77
2023/07/23 06:46:33;;;;;;;2.65;2.00;;;23.70;99.90;;;;;;5037718;28;20025;-74
2023/07/23 06:49:00;;;;;;;2.70;2.13;;;23.70;99.90;;;;;;5037129;28;20033;-73
2023/07/23 06:51:26;;;;;;;3.10;2.10;;;23.90;99.90;;;;;;5034454;28;20029;-75
2023/07/23 06:53:52;;;;;;;3.00;1.90;;;24.00;99.90;;;;;;5031830;28;20040;-74
2023/07/23 06:56:19;;;;;;;5.03;2.00;;;23.90;99.90;;;;;;5035400;28;20406;-74
2023/07/23 06:58:46;;;;;;;6.13;2.40;;;24.30;99.90;;;;;;5036681;28;20462;-75
2023/07/23 07:01:12;;;;;;;2.20;1.63;;;24.60;99.90;;;;;;5031816;28;20049;-74
2023/07/23 07:03:39;;;;;;;2.40;1.65;;;24.50;99.90;;;;;;5032327;28;20041;-73
2023/07/23 07:06:05;;;;;;;3.63;1.70;;;24.40;99.90;;;;;;5032370;28;20029;-72
2023/07/23 07:08:32;;;;;;;2.67;1.58;;;24.60;99.90;;;;;;5036179;28;20463;-75
2023/07/23 07:11:02;;;;;;;3.40;1.20;;;24.80;99.90;;;;;;5035837;28;20041;-74
2023/07/23 07:13:30;;;;;;;1.85;1.52;;;24.40;99.90;;;;;;5035212;28;20030;-73
2023/07/23 07:15:56;;;;;;;5.95;1.67;;;24.70;99.90;;;;;;5038061;28;20041;-75
2023/07/23 07:18:25;;;;;;;2.38;1.65;;;25.10;99.90;;;;;;5030815;28;20040;-76
2023/07/23 07:21:02;;;;;;;2.88;1.70;;;24.80;99.90;;;;;;5033439;28;20029;-76
2023/07/23 07:23:29;;;;;;;2.22;1.48;;;25.00;99.90;;;;;;5033604;28;20029;-76
2023/07/23 07:25:57;;;;;;;3.03;1.42;;;24.80;99.90;;;;;;5039671;28;20049;-74
2023/07/23 07:28:24;;;;;;;2.13;1.23;;;24.40;99.90;;;;;;5039012;28;20037;-75
2023/07/23 07:30:51;;;;;;;2.30;1.40;;;24.60;99.90;;;;;;5040123;28;20025;-75
2023/07/23 07:33:17;;;;;;;2.40;1.60;;;24.70;99.90;;;;;;5040055;28;20045;-74
2023/07/23 07:35:43;;;;;;;1.95;1.73;;;24.30;99.90;;;;;;5036537;28;20045;-75
2023/07/23 07:38:09;;;;;;;5.35;1.67;;;24.60;99.90;;;;;;5052846;28;20406;-74
2023/07/23 07:40:39;;;;;;;3.80;1.55;;;24.50;99.90;;;;;;5031108;28;20033;-73
2023/07/23 07:43:05;;;;;;;2.33;1.40;;;25.20;99.90;;;;;;5034866;28;20049;-76
2023/07/23 07:45:31;;;;;;;2.60;1.50;;;25.50;99.90;;;;;;5038821;28;20029;-73
2023/07/23 07:47:57;;;;;;;1.98;1.50;;;25.50;99.90;;;;;;5037392;28;20056;-75
2023/07/23 07:50:24;;;;;;;3.75;1.83;;;25.00;99.90;;;;;;5042215;28;20394;-72
2023/07/23 07:52:50;;;;;;;2.58;1.60;;;24.30;99.90;;;;;;5043692;28;20408;-72
2023/07/23 07:55:17;;;;;;;4.93;1.52;;;24.20;99.90;;;;;;5036953;28;20041;-74
2023/07/23 07:57:43;;;;;;;1.80;1.25;;;24.10;99.90;;;;;;5035626;28;20037;-73
2023/07/23 08:00:10;;;;;;;3.47;1.00;;;24.10;99.90;;;;;;5039373;28;20064;-76
2023/07/23 08:02:41;;;;;;;2.53;1.00;;;23.80;99.90;;;;;;5038142;28;20489;-72
2023/07/23 08:05:08;;;;;;;1.92;0.95;;;23.90;99.90;;;;;;5037292;28;20037;-75
2023/07/23 08:07:35;;;;;;;2.70;0.93;;;23.70;99.90;;;;;;5038839;28;20026;-75
2023/07/23 08:10:02;;;;;;;2.35;0.90;;;23.60;99.90;;;;;;5037607;28;20418;-74
2023/07/23 08:12:29;;;;;;;3.17;1.05;;;23.50;99.90;;;;;;5039409;28;20056;-73
2023/07/23 08:14:55;;;;;;;2.83;1.30;;;23.60;99.90;;;;;;5036910;28;20048;-72
2023/07/23 08:17:22;;;;;;;2.72;0.90;;;23.80;99.90;;;;;;5036113;28;20045;-73
2023/07/23 08:19:48;;;;;;;3.25;0.73;;;23.80;99.90;;;;;;5034371;28;20678;-73
2023/07/23 08:22:14;;;;;;;2.47;1.10;;;23.70;99.90;;;;;;5036734;28;20040;-72
2023/07/23 08:24:41;;;;;;;1.52;1.00;;;23.70;99.90;;;;;;5037617;28;20037;-72
2023/07/23 08:27:08;;;;;;;2.65;0.90;;;23.50;99.90;;;;;;5036970;28;20063;-72
2023/07/23 08:29:36;;;;;;;4.07;1.00;;;23.70;99.90;;;;;;5036875;28;20037;-72
2023/07/23 08:32:03;;;;;;;2.55;1.20;;;23.80;99.90;;;;;;5038724;28;20408;-72
2023/07/23 08:34:29;;;;;;;2.85;1.10;;;23.80;99.90;;;;;;5037145;28;20033;-73
2023/07/23 08:36:56;;;;;;;3.20;1.10;;;23.60;99.90;;;;;;5040087;28;20040;-74
2023/07/23 08:39:22;;;;;;;1.48;1.05;;;23.60;99.90;;;;;;5041118;28;20100;-74
2023/07/23 08:42:08;;;;;;;1.27;0.90;;;23.90;99.90;;;;;;5037536;28;20463;-75
2023/07/23 08:44:40;;;;;;;2.22;1.20;;;23.90;99.90;;;;;;5035563;28;20044;-73
2023/07/23 08:47:12;;;;;;;1.52;0.88;;;23.90;99.90;;;;;;5034994;28;20041;-73
2023/07/23 08:49:43;;;;;;;1.38;1.02;;;23.70;99.90;;;;;;5040136;28;20034;-71
2023/07/23 08:52:12;;;;;;;2.45;0.95;;;23.30;99.90;;;;;;5028202;28;20036;-73
2023/07/23 08:54:42;;;;;;;1.55;1.08;;;23.50;99.90;;;;;;5036388;28;20426;-74
2023/07/23 08:57:08;;;;;;;1.52;0.80;;;23.70;99.90;;;;;;5038510;28;20040;-73
2023/07/23 08:59:36;;;;;;;2.35;1.13;;;23.80;99.90;;;;;;5037595;28;20049;-73
2023/07/23 09:02:03;;;;;;;2.53;1.20;;;23.90;99.90;;;;;;5028320;28;20037;-73
2023/07/23 09:04:29;;;;;;;1.60;0.90;;;23.70;99.90;;;;;;5026736;28;20308;-73
2023/07/23 09:06:58;;;;;;;2.53;0.88;;;23.60;99.90;;;;;;5027071;28;20045;-72
2023/07/23 09:09:24;;;;;;;3.20;1.00;;;23.70;99.90;;;;;;5029416;28;21048;-72
2023/07/23 09:11:50;;;;;;;3.50;1.13;;;23.70;99.90;;;;;;5028319;28;20037;-71
2023/07/23 09:14:17;;;;;;;2.22;0.93;;;23.80;99.90;;;;;;5026732;28;20040;-71
2023/07/23 09:16:48;;;;;;;2.63;0.90;;;24.00;99.90;;;;;;5032653;28;20060;-72
2023/07/23 09:19:22;;;;;;;3.03;1.20;;;24.20;99.90;;;;;;5036050;28;20112;-72
2023/07/23 09:21:48;;;;;;;1.65;0.93;;;24.30;99.90;;;;;;5029624;28;20045;-72
2023/07/23 09:24:15;;;;;;;4.30;1.35;;;24.50;99.90;;;;;;5025390;28;20636;-72
2023/07/23 09:26:43;;;;;;;2.00;1.15;;;24.70;99.90;;;;;;5025923;28;20048;-75
2023/07/23 09:29:11;;;;;;;1.55;1.02;;;24.90;99.90;;;;;;5042691;28;20046;-72
2023/07/23 09:31:42;;;;;;;2.65;1.33;;;25.00;99.90;;;;;;5036361;28;20037;-73
2023/07/23 09:34:09;;;;;;;1.63;1.10;;;24.60;99.90;;;;;;5036468;28;20033;-73
2023/07/23 09:36:35;;;;;;;3.15;1.23;;;24.40;99.90;;;;;;5034476;28;20033;-71
2023/07/23 09:39:05;;;;;;;2.33;1.05;;;24.40;99.90;;;;;;5038073;28;20462;-77
2023/07/23 09:41:36;;;;;;;1.55;1.10;;;24.40;99.90;;;;;;5029790;28;20316;-73
2023/07/23 09:44:09;;;;;;;1.20;0.98;;;24.50;99.90;;;;;;5031325;28;20037;-73
2023/07/23 09:46:37;;;;;;;2.13;1.27;;;24.50;99.90;;;;;;5028651;28;20048;-73
2023/07/23 09:49:04;;;;;;;1.60;1.23;;;24.20;99.90;;;;;;5029673;28;20029;-71
2023/07/23 09:51:34;;;;;;;4.88;1.10;;;23.90;99.90;;;;;;5025501;28;20033;-73
2023/07/23 09:54:01;;;;;;;3.67;1.00;;;23.80;99.90;;;;;;5028038;28;20040;-73
2023/07/23 09:56:28;;;;;;;2.35;1.23;;;23.80;99.90;;;;;;5026843;28;20057;-72
2023/07/23 09:58:54;;;;;;;2.72;0.90;;;23.80;99.90;;;;;;5034898;28;20029;-73
2023/07/23 10:01:20;;;;;;;3.67;1.23;;;23.90;99.90;;;;;;5027331;28;20029;-73
2023/07/23 10:03:48;;;;;;;1.90;1.20;;;23.90;99.90;;;;;;5033667;28;20034;-71
2023/07/23 10:06:20;;;;;;;2.10;0.95;;;23.90;99.90;;;;;;5031968;28;20052;-73
2023/07/23 10:08:48;;;;;;;2.63;1.33;;;24.10;99.90;;;;;;5035725;28;20493;-71
2023/07/23 10:11:17;;;;;;;2.38;1.00;;;24.30;99.90;;;;;;5030112;28;20048;-71
2023/07/23 10:13:47;;;;;;;1.58;1.05;;;24.60;99.90;;;;;;5026672;28;20028;-70
2023/07/23 10:16:33;;;;;;;2.28;1.33;;;24.80;99.90;;;;;;5034648;28;20041;-71
2023/07/23 10:19:04;;;;;;;2.75;1.15;;;24.90;99.90;;;;;;5027966;28;20025;-72
2023/07/23 10:21:32;;;;;;;3.83;1.73;;;25.10;99.90;;;;;;5034020;28;20108;-73
2023/07/23 10:23:59;;;;;;;2.72;1.13;;;25.40;99.90;;;;;;5034911;28;20371;-71
2023/07/23 10:26:30;;;;;;;4.25;1.42;;;25.60;99.90;;;;;;5037206;28;20034;-72
2023/07/23 10:29:07;;;;;;;2.72;1.48;;;25.50;99.90;;;;;;5038093;28;20042;-72
2023/07/23 10:31:35;;;;;;;2.70;1.40;;;25.80;99.90;;;;;;5037710;28;20474;-72
2023/07/23 10:34:01;;;;;;;2.38;1.40;;;25.70;99.90;;;;;;5034010;28;20029;-73
2023/07/23 10:36:27;;;;;;;2.33;0.85;;;25.80;99.90;;;;;;5033507;28;20053;-72
2023/07/23 10:39:20;;;;;;;1.63;0.77;;;25.90;99.90;;;;;;5034854;28;20029;-73
2023/07/23 10:41:53;;;;;;;6.25;1.25;;;25.80;99.90;;;;;;5033597;28;20029;-72
2023/07/23 10:44:30;;;;;;;2.90;0.98;;;25.50;99.90;;;;;;5032472;28;20478;-72
2023/07/23 10:46:58;;;;;;;5.03;1.33;;;25.80;99.90;;;;;;5037632;28;20060;-73
2023/07/23 10:49:27;;;;;;;3.97;1.60;;;26.00;99.90;;;;;;5036700;28;20041;-73
2023/07/23 10:51:54;;;;;;;17.08;1.75;;;26.20;99.90;;;;;;5032328;28;20049;-72
2023/07/23 10:54:21;;;;;;;4.75;1.20;;;26.50;99.90;;;;;;5020025;28;20033;-72
2023/07/23 10:56:51;;;;;;;2.95;1.40;;;26.60;99.90;;;;;;5037681;28;20405;-71
2023/07/23 10:59:21;;;;;;;1.52;1.05;;;26.90;99.90;;;;;;5037532;28;20045;-73
2023/07/23 11:01:51;;;;;;;1.65;0.80;;;26.60;99.90;;;;;;5033288;28;20033;-72
2023/07/23 11:04:25;;;;;;;2.83;1.52;;;26.70;99.90;;;;;;5032258;28;20053;-74
2023/07/23 11:07:06;;;;;;;3.03;1.30;;;26.70;99.90;;;;;;5035581;28;20048;-72
2023/07/23 11:09:37;;;;;;;3.47;1.23;;;26.90;99.90;;;;;;5037074;28;20033;-73
2023/07/23 11:12:05;;;;;;;2.90;1.08;;;26.70;99.90;;;;;;5033333;28;20155;-71
2023/07/23 11:14:34;;;;;;;1.73;1.42;;;26.40;99.90;;;;;;5031677;28;20036;-71
2023/07/23 11:17:02;;;;;;;1.33;1.00;;;26.20;99.90;;;;;;5037461;28;20491;-72
2023/07/23 11:19:30;;;;;;;1.85;1.10;;;26.10;99.90;;;;;;5033086;28;20029;-71
2023/07/23 11:22:02;;;;;;;4.57;1.40;;;26.00;99.90;;;;;;5033163;28;20037;-71
2023/07/23 11:24:30;;;;;;;1.85;1.35;;;26.00;99.90;;;;;;5034195;28;20029;-73
2023/07/23 11:27:03;;;;;;;2.72;1.23;;;26.10;99.90;;;;;;5037049;28;20033;-71
2023/07/23 11:29:30;;;;;;;2.70;1.40;;;26.20;99.90;;;;;;5039119;28;20034;-73
2023/07/23 11:31:57;;;;;;;3.25;1.63;;;26.20;99.90;;;;;;5037252;28;20045;-75
2023/07/23 11:34:24;;;;;;;2.15;1.27;;;26.40;99.90;;;;;;5032516;28;20386;-73
2023/07/23 11:36:55;;;;;;;1.83;1.08;;;26.50;99.90;;;;;;5032698;28;20436;-72
2023/07/23 11:39:24;;;;;;;3.97;1.58;;;26.40;99.90;;;;;;5035366;28;20048;-74
2023/07/23 11:41:50;;;;;;;3.88;1.50;;;26.70;99.90;;;;;;5038425;28;20351;-70
2023/07/23 11:44:17;;;;;;;2.33;1.15;;;26.80;99.90;;;;;;5032188;28;20029;-72
2023/07/23 11:46:43;;;;;;;3.50;1.05;;;26.80;99.90;;;;;;5033322;28;20045;-71
2023/07/23 11:49:13;;;;;;;1.95;1.15;;;26.90;99.90;;;;;;5039594;28;20040;-73
2023/07/23 11:51:40;;;;;;;2.55;1.27;;;26.80;99.90;;;;;;5033555;28;20041;-72
2023/07/23 11:54:12;;;;;;;2.70;1.48;;;26.60;99.90;;;;;;5038111;28;20033;-72
2023/07/23 11:56:48;;;;;;;3.25;1.73;;;26.70;99.90;;;;;;5035013;28;20480;-72
2023/07/23 11:59:16;;;;;;;4.13;1.30;;;26.80;99.90;;;;;;5033610;28;20398;-71
2023/07/23 12:01:42;;;;;;;2.47;1.25;;;26.60;99.90;;;;;;5031764;28;20363;-71
2023/07/23 12:04:09;;;;;;;3.33;1.27;;;26.80;99.90;;;;;;5031661;28;20046;-72
2023/07/23 12:06:38;;;;;;;2.42;1.50;;;26.70;99.90;;;;;;5035166;28;20041;-72
2023/07/23 12:09:07;;;;;;;1.73;1.30;;;26.70;99.90;;;;;;5033315;28;20029;-72
2023/07/23 12:11:33;;;;;;;3.53;1.30;;;26.90;99.90;;;;;;5038807;28;20033;-71
2023/07/23 12:14:06;;;;;;;2.90;1.77;;;26.70;99.90;;;;;;5037995;28;20656;-72
2023/07/23 12:16:46;;;;;;;2.58;1.38;;;26.70;99.90;;;;;;5037089;28;20037;-72
2023/07/23 12:19:15;;;;;;;2.40;1.60;;;26.70;99.90;;;;;;5034030;28;20036;-72
2023/07/23 12:21:43;;;;;;;4.80;1.55;;;26.70;99.90;;;;;;5036616;28;20033;-73
2023/07/23 12:24:16;;;;;;;2.15;1.30;;;27.00;99.90;;;;;;5037931;28;20034;-72
2023/07/23 12:26:43;;;;;;;2.58;1.77;;;27.20;99.90;;;;;;5038268;28;20048;-72
2023/07/23 12:29:10;;;;;;;3.13;1.27;;;27.30;99.90;;;;;;5037664;28;20032;-73
2023/07/23 12:31:44;;;;;;;2.10;1.40;;;27.40;99.90;;;;;;5037360;28;20371;-72
2023/07/23 12:34:12;;;;;;;2.65;1.40;;;27.30;99.90;;;;;;5036712;28;20330;-72
2023/07/23 12:36:39;;;;;;;2.92;1.30;;;27.30;99.90;;;;;;5054837;28;20501;-72
2023/07/23 12:39:07;;;;;;;1.98;1.42;;;27.30;99.90;;;;;;5039389;28;20520;-71
2023/07/23 12:41:34;;;;;;;3.42;1.52;;;27.00;99.90;;;;;;5039676;28;20041;-72
2023/07/23 12:44:01;;;;;;;3.55;1.92;;;27.10;99.90;;;;;;5035023;28;20451;-71
2023/07/23 12:46:28;;;;;;;2.50;1.58;;;27.20;99.90;;;;;;5036791;28;20048;-71
2023/07/23 12:48:54;;;;;;;2.60;1.95;;;27.10;99.90;;;;;;5036645;28;20402;-73